Home > Products > Valid Products > TAF

000
FTUS46 KOTX 241801 CCA
TAFPUW
TAF COR
KPUW 241801Z 2418/2518 VRB04KT P6SM VCSH SCT025 OVC050
      TEMPO 2418/2420 BKN025
     FM250200 VRB04KT P6SM SCT060=



000
FTUS46 KOTX 241723
TAFMWH
TAF
KMWH 241723Z 2418/2518 35004KT P6SM FEW050 SCT110
     FM242100 20005KT P6SM SCT060 SCT100
     FM250300 23006KT P6SM SKC=



000
FTUS46 KOTX 241723
TAFPUW
TAF
KPUW 241723Z 2418/2518 07004KT P6SM VCSH OVC050
     FM250200 VRB04KT P6SM SCT060=



000
FTUS46 KOTX 241723
TAFCOE
TAF
KCOE 241723Z 2418/2518 13004KT P6SM -SHRA SCT030 OVC060
     FM242100 VRB03KT P6SM VCSH BKN050 OVC090
     FM250300 14004KT P6SM SCT050
      AMD LTD TO CLD AND VIS=



000
FTUS46 KOTX 241723
TAFEAT
TAF
KEAT 241723Z 2418/2518 33007KT P6SM SCT100
     FM241900 15006KT P6SM SCT100
     FM250000 30010KT P6SM SKC=



000
FTUS46 KOTX 241723
TAFSFF
TAF
KSFF 241723Z 2418/2518 13004KT P6SM -SHRA SCT019 BKN024 BKN090
     FM242000 20005KT P6SM SCT050 BKN090
     FM242200 24005KT P6SM VCSH BKN050 BKN100
     FM250200 VRB03KT P6SM SCT060=



000
FTUS46 KOTX 241723
TAFGEG
TAF
KGEG 241723Z 2418/2518 16004KT P6SM -SHRA SCT015 SCT060 BKN090
     FM242000 20005KT P6SM SCT050 BKN090
     FM242300 22005KT P6SM VCSH BKN050 BKN100
     FM250200 20005KT P6SM SCT060=



000
FTUS46 KOTX 241723
TAFLWS
TAF
KLWS 241723Z 2418/2518 30005KT P6SM -SHRA SCT050 OVC070
     FM250200 18004KT P6SM SCT080=



000
FTUS46 KOTX 241653 AAA
TAFGEG
TAF AMD
KGEG 241653Z 2417/2512 13005KT P6SM -RA SCT008 BKN050 BKN100
     FM241900 22005KT P6SM -SHRA BKN050 BKN100
     FM250200 20005KT P6SM SCT060=



000
FTUS46 KOTX 241653 AAA
TAFPUW
TAF AMD
KPUW 241653Z 2417/2512 11005KT P6SM -RA BKN060 OVC070
     FM241800 27005KT P6SM -SHRA BKN050 BKN090
     FM250200 VRB04KT P6SM SCT060=



000
FTUS46 KOTX 241653 AAA
TAFSFF
TAF AMD
KSFF 241653Z 2417/2512 10005KT P6SM SCT024 BKN060 OVC090
     FM241900 24005KT P6SM -SHRA BKN050 BKN100
     FM250200 VRB03KT P6SM SCT060=



000
FTUS46 KOTX 241120
TAFEAT
TAF
KEAT 241120Z 2412/2512 31006KT P6SM BKN100 BKN200
     FM241900 15006KT P6SM SCT100
     FM250000 30010KT P6SM SKC=



000
FTUS46 KOTX 241120
TAFLWS
TAF
KLWS 241120Z 2412/2512 08006KT P6SM VCSH BKN070 OVC100
     FM241900 31005KT P6SM VCSH SCT070 BKN100
     FM250200 18004KT P6SM SCT080=



000
FTUS46 KOTX 241120
TAFPUW
TAF
KPUW 241120Z 2412/2512 09004KT P6SM -SHRA OVC070
     FM241600 VRB04KT P6SM BKN030 BKN070
     FM241800 27005KT P6SM -SHRA BKN050 BKN090
     FM250200 VRB04KT P6SM SCT060=



000
FTUS46 KOTX 241120
TAFMWH
TAF
KMWH 241120Z 2412/2512 35004KT P6SM BKN100 BKN200
     FM242000 20007KT P6SM SCT120
     FM250300 23006KT P6SM SKC=



000
FTUS46 KOTX 241120
TAFSFF
TAF
KSFF 241120Z 2412/2512 02003KT P6SM -SHRA OVC060
     FM241600 VRB03KT P6SM BKN030 OVC060
     FM241900 24005KT P6SM -SHRA BKN050 BKN100
     FM250200 VRB03KT P6SM SCT060=



000
FTUS46 KOTX 241120
TAFGEG
TAF
KGEG 241120Z 2412/2512 10005KT P6SM -SHRA OVC060
     FM241600 17005KT P6SM BKN025 OVC050
     FM241900 22005KT P6SM -SHRA BKN050 BKN100
     FM250200 20005KT P6SM SCT060=



000
FTUS46 KOTX 241120
TAFCOE
TAF
KCOE 241120Z 2412/2512 05005KT P6SM -SHRA OVC060
     FM241600 11005KT P6SM BKN030 OVC060
     FM241800 26004KT P6SM -SHRA BKN050 BKN090
     FM250200 14004KT P6SM SCT050
      AMD LTD TO CLD AND VIS=



000
FTUS46 KOTX 232342 CCA
TAFEAT
TAF COR
KEAT 232342Z 2400/2424 31015G22KT P6SM FEW100 BKN150
     FM240300 31012KT P6SM SCT120 BKN150
     FM240800 31006KT P6SM BKN150
     FM241900 15006KT P6SM SCT100=



000
FTUS46 KOTX 232339
TAFLWS
TAF
KLWS 232339Z 2400/2424 10005KT P6SM BKN080 OVC150
     FM240300 12004KT P6SM VCSH BKN060 OVC090
     FM240900 VRB04KT P6SM OVC080
     FM241900 31005KT P6SM -SHRA BKN060 BKN100=



000
FTUS46 KOTX 232339
TAFCOE
TAF
KCOE 232339Z 2400/2424 15005KT P6SM -RA OVC040
     FM241300 08005KT P6SM -SHRA BKN030 OVC050
     FM241800 26004KT P6SM -SHRA BKN050 BKN080=



000
FTUS46 KOTX 232339
TAFEAT
TAF
KEAT 232339Z 2400/2424 29015G22KT P6SM FEW100 BKN150
     FM240300 30012KT P6SM BKN150=



000
FTUS46 KOTX 232339
TAFMWH
TAF
KMWH 232339Z 2400/2424 20007KT P6SM SCT100 BKN120
     FM240600 36005KT P6SM BKN120
     FM241800 20006KT P6SM SCT120=



000
FTUS46 KOTX 232339
TAFPUW
TAF
KPUW 232339Z 2400/2424 24008KT P6SM -RA OVC060
     FM240300 10003KT P6SM -RA OVC060
     FM240700 00000KT P6SM OVC060
     FM241700 27005KT P6SM -SHRA BKN050 BKN080=



000
FTUS46 KOTX 232339
TAFSFF
TAF
KSFF 232339Z 2400/2424 VRB03KT P6SM -RA OVC050
     FM240300 VRB02KT P6SM VCSH OVC050
     FM240900 00000KT P6SM OVC050
     FM241530 VRB02KT P6SM BKN030 OVC060
     FM241700 24005KT P6SM -SHRA BKN050 BKN080=



000
FTUS46 KOTX 232339
TAFGEG
TAF
KGEG 232339Z 2400/2424 21009KT P6SM -RA FEW025 OVC050
     FM240400 16006KT P6SM VCSH OVC050
     FM240800 13005KT P6SM OVC050
     FM241530 17005KT P6SM BKN025 OVC050
     FM241730 19005KT P6SM -SHRA BKN050 BKN080=



000
FTUS46 KOTX 231752
TAFGEG
TAF
KGEG 231752Z 2318/2418 22015KT P6SM -RA BKN015 OVC050
     FM240000 21009KT P6SM -RA BKN030 OVC050
     FM240400 16006KT P6SM -SHRA OVC050
     FM240800 15005KT P6SM BKN050=



000
FTUS46 KOTX 231752
TAFSFF
TAF
KSFF 231752Z 2318/2418 22013KT P6SM -RA BKN020 OVC050
     FM240200 16004KT P6SM -RA BKN035 OVC050
     FM240500 VRB02KT P6SM -SHRA OVC050
     FM240900 VRB02KT P6SM BKN050=



000
FTUS46 KOTX 231752
TAFCOE
TAF
KCOE 231752Z 2318/2418 22010G15KT P6SM -RA BKN020 OVC030
     FM240300 16005KT P6SM -RA BKN030 OVC050
     FM240600 12005KT P6SM -SHRA OVC050
     FM241200 10005KT P6SM -SHRA BKN030 OVC050=



000
FTUS46 KOTX 231752
TAFLWS
TAF
KLWS 231752Z 2318/2418 32009KT P6SM BKN050 OVC070
     FM240200 12005KT P6SM OVC150
     FM240600 13003KT P6SM OVC120
     FM241500 09003KT P6SM OVC100=



000
FTUS46 KOTX 231752
TAFMWH
TAF
KMWH 231752Z 2318/2418 22010KT P6SM BKN100 OVC200
     FM240100 20008KT P6SM BKN150
     FM240600 26007KT P6SM BKN120=



000
FTUS46 KOTX 231752
TAFEAT
TAF
KEAT 231752Z 2318/2418 31015KT P6SM SCT070 BKN080 OVC100
     FM232200 29012G16KT P6SM SCT100 BKN150
     FM240100 30012KT P6SM BKN150
     FM240600 31010KT P6SM BKN100=



000
FTUS46 KOTX 231752
TAFPUW
TAF
KPUW 231752Z 2318/2418 25015G23KT P6SM VCSH BKN025 OVC050
     FM240000 24010KT P6SM BKN050 OVC120
     FM240300 13005KT P6SM BKN070 OVC120
     FM240600 09003KT P6SM OVC100=



000
FTUS46 KOTX 231659 AAA
TAFCOE
TAF AMD
KCOE 231659Z 2317/2412 22009G15KT P6SM -RA BKN020 OVC030
     FM240000 16007KT P6SM VCSH OVC060=



000
FTUS46 KOTX 231658 AAA
TAFSFF
TAF AMD
KSFF 231658Z 2317/2412 22013KT P6SM -RA BKN020 OVC050
     FM240200 16004KT P6SM OVC060=



000
FTUS46 KOTX 231657 AAA
TAFGEG
TAF AMD
KGEG 231657Z 2317/2412 20015KT P6SM -RA BKN015 OVC050
     FM240000 20009KT P6SM OVC060
     FM240300 16006KT P6SM OVC060=



000
FTUS46 KOTX 231427 AAA
TAFPUW
TAF AMD
KPUW 231427Z 2314/2412 24015G23KT P6SM BKN025 OVC030
     FM232200 26012KT P6SM FEW050 BKN100 OVC120
     FM240300 13003KT P6SM OVC080=



000
FTUS46 KOTX 231131
TAFEAT
TAF
KEAT 231131Z 2312/2412 31015KT P6SM BKN200
     FM232000 29010G16KT P6SM SCT100 BKN150
     FM240100 30012KT P6SM BKN080 OVC120=



000
FTUS46 KOTX 231131
TAFGEG
TAF
KGEG 231131Z 2312/2412 21015KT P6SM SCT080 BKN100 OVC120
     FM231500 20012KT P6SM SCT025 OVC060
     FM231800 21012G20KT P6SM VCSH OVC060
     FM240000 20009KT P6SM OVC060
     FM240300 16006KT P6SM OVC060=



000
FTUS46 KOTX 231131
TAFCOE
TAF
KCOE 231131Z 2312/2412 19006KT P6SM VCSH SCT060 BKN090 OVC120
     FM231700 21008G15KT P6SM -SHRA OVC060
     FM240000 16007KT P6SM VCSH OVC060=



000
FTUS46 KOTX 231131
TAFSFF
TAF
KSFF 231131Z 2312/2412 23007KT P6SM SCT060 BKN100 OVC120
     FM231530 22008KT P6SM SCT030 OVC060
     FM231700 22010KT P6SM -SHRA OVC060
     FM240200 16004KT P6SM OVC060=



000
FTUS46 KOTX 231131
TAFMWH
TAF
KMWH 231131Z 2312/2412 23008KT P6SM SCT150 OVC200
     FM231700 21010KT P6SM SCT120 BKN150 OVC200
     FM240100 20008KT P6SM BKN080 OVC120=



000
FTUS46 KOTX 231131
TAFPUW
TAF
KPUW 231131Z 2312/2412 24012KT P6SM BKN040 BKN060 OVC150
     FM231430 24015G23KT P6SM SCT030 OVC150
     FM232200 26012KT P6SM FEW050 BKN100 OVC120
     FM240300 13003KT P6SM OVC080=



000
FTUS46 KOTX 231131
TAFLWS
TAF
KLWS 231131Z 2312/2412 15004KT P6SM FEW060 BKN200
     FM231600 29009KT P6SM FEW100 SCT150 BKN200
     FM240200 10005KT P6SM BKN150 OVC200=



000
FTUS46 KOTX 222342 CCA
TAFEAT
TAF COR
KEAT 222342Z 2300/2324 30016G22KT P6SM FEW070 BKN200
     FM230230 29012KT P6SM BKN200
     FM232000 29010G16KT P6SM SCT100 BKN150=



000
FTUS46 KOTX 222339
TAFLWS
TAF
KLWS 222339Z 2300/2324 25010KT P6SM SCT070 BKN120
     FM230300 21008KT P6SM SCT060 BKN200
     FM231600 28010KT P6SM SCT060 BKN150=



000
FTUS46 KOTX 222339
TAFPUW
TAF
KPUW 222339Z 2300/2324 24017G25KT P6SM BKN100
     FM230230 23011KT P6SM SCT060 BKN150
     FM231200 23011KT P6SM SCT025 BKN050 OVC180
     FM231430 24015G23KT P6SM SCT030 BKN050 OVC180
     FM232200 26012KT P6SM SCT050 BKN120 OVC180=



000
FTUS46 KOTX 222339
TAFEAT
TAF
KEAT 222339Z 2300/2324 30016G22KT P6SM FEW070 BKN200
     FM230300 29012KT P6SM BKN200=



000
FTUS46 KOTX 222339
TAFMWH
TAF
KMWH 222339Z 2300/2324 27017G25KT P6SM SCT070 SCT120 BKN200
     FM230300 26011KT P6SM BKN200
     FM230800 21008KT P6SM BKN200
     FM231800 22009G15KT P6SM SCT120 BKN150=



000
FTUS46 KOTX 222339
TAFGEG
TAF
KGEG 222339Z 2300/2324 22022G30KT P6SM VCSH BKN060 BKN080
     FM230230 21015KT P6SM BKN070 OVC100
     FM230900 20012KT P6SM VCSH OVC080
     FM231300 20012KT P6SM -RA BKN025 OVC060
     FM231800 21012G20KT P6SM VCSH BKN050 OVC080=



000
FTUS46 KOTX 222339
TAFCOE
TAF
KCOE 222339Z 2300/2324 20015G23KT P6SM -SHRA SCT040 OVC060
     FM230300 20011KT P6SM -SHRA SCT040 OVC060
     FM231100 20008KT P6SM -RA BKN018 OVC030
     FM231400 20006KT P6SM -RA OVC025
     FM231700 21008G15KT P6SM -SHRA BKN040 OVC060=



000
FTUS46 KOTX 222339
TAFSFF
TAF
KSFF 222339Z 2300/2324 22017G25KT P6SM VCSH BKN070 BKN090
     FM230230 22010KT P6SM BKN070 OVC100
     FM230900 22007KT P6SM VCSH OVC080
     FM231300 22008KT P6SM -RA BKN030 OVC060
     FM231700 22010KT P6SM VCSH BKN060 OVC090=



000
FTUS46 KOTX 222129 AAA
TAFCOE
TAF AMD
KCOE 222129Z 2221/2318 21011G18KT P6SM -SHRA VCTS BKN040CB OVC050
     FM222300 21011G16KT P6SM -SHRA BKN035 OVC050
     FM230300 20011KT P6SM -RA BKN050 OVC080
     FM231200 20008KT P6SM -RA BKN015 OVC030=



000
FTUS46 KOTX 221732
TAFPUW
TAF
KPUW 221732Z 2218/2318 24022G29KT P6SM -SHRA SCT030 OVC050
     FM221900 24022G29KT P6SM VCSH BKN050 OVC100
     FM222200 25017G25KT P6SM SCT060 BKN120
     FM230230 23011KT P6SM SCT060 BKN200
     FM231200 23013KT P6SM SCT025 BKN050=



000
FTUS46 KOTX 221732
TAFMWH
TAF
KMWH 221732Z 2218/2318 22017G25KT P6SM SCT070 SCT120 BKN200
     FM230300 24011KT P6SM BKN200
     FM231400 22007KT P6SM SCT100 BKN150=



000
FTUS46 KOTX 221732
TAFCOE
TAF
KCOE 221732Z 2218/2318 21011G16KT P6SM -RA BKN035 OVC050
     FM230300 20011KT P6SM -RA BKN050 OVC080
     FM231200 20008KT P6SM -RA BKN015 OVC030=



000
FTUS46 KOTX 221732
TAFSFF
TAF
KSFF 221732Z 2218/2318 22014G20KT P6SM -RA BKN020 OVC050
     FM221900 22015G24KT P6SM VCSH BKN050 OVC080
     FM230300 22010KT P6SM BKN070 OVC100
     FM231400 22009KT P6SM -RA BKN030 OVC060=



000
FTUS46 KOTX 221732
TAFLWS
TAF
KLWS 221732Z 2218/2318 28009KT P6SM BKN080 OVC100
     FM222000 28012G20KT P6SM SCT070 BKN120
     FM230300 21008KT P6SM SCT060 BKN200
     FM231200 19006KT P6SM SCT050 BKN080=



000
FTUS46 KOTX 221732
TAFEAT
TAF
KEAT 221732Z 2218/2318 30015G22KT P6SM FEW060 SCT120
     FM222000 30022G30KT P6SM FEW070 BKN200
     FM230300 29012KT P6SM BKN200=



000
FTUS46 KOTX 221732
TAFGEG
TAF
KGEG 221732Z 2218/2318 22020G28KT P6SM -RA SCT020 OVC060
     FM222000 22024G32KT P6SM VCSH BKN050 OVC080
     FM230300 21016KT P6SM BKN070 OVC100
     FM231400 20012KT P6SM -RA BKN025 OVC060=



000
FTUS46 KOTX 221600 AAA
TAFEAT
TAF AMD
KEAT 221600Z 2216/2312 30015G22KT P6SM FEW060 SCT120
     FM222000 30022G30KT P6SM FEW050 BKN200
     FM230300 29012KT P6SM BKN200=



000
FTUS46 KOTX 221515 AAA
TAFCOE
TAF AMD
KCOE 221515Z 2215/2312 21016G22KT P6SM -RA SCT019 BKN025 OVC040
     FM221930 21017G24KT P6SM -SHRA BKN040 OVC080
     FM230300 20013KT P6SM -SHRA BKN050 OVC080=



000
FTUS46 KOTX 221120
TAFPUW
TAF
KPUW 221120Z 2212/2312 23012KT P6SM -RA BKN025 OVC050
     FM221300 23014G20KT P6SM -RA BKN030 OVC060
     FM221700 24022G29KT P6SM VCSH BKN050 OVC100
     FM222200 25017G25KT P6SM SCT060 OVC120
     FM230230 23011KT P6SM SCT060 OVC150=



000
FTUS46 KOTX 221120
TAFGEG
TAF
KGEG 221120Z 2212/2312 20018KT P6SM -RA BKN010 OVC050
     FM221500 21017G23KT P6SM -RA BKN030 OVC050
     FM221800 22020G28KT P6SM -RA BKN040 OVC060
     FM222000 22024G32KT P6SM -SHRA BKN050 OVC080
     FM230300 21016KT P6SM BKN070 OVC100=



000
FTUS46 KOTX 221120
TAFLWS
TAF
KLWS 221120Z 2212/2312 19006KT P6SM VCSH BKN060 OVC090
     FM221700 28009KT P6SM BKN080 OVC100
     FM222000 28012G20KT P6SM BKN100 OVC150
     FM230300 24008KT P6SM OVC150=



000
FTUS46 KOTX 221120
TAFSFF
TAF
KSFF 221120Z 2212/2312 21009KT P6SM -RA BKN015 BKN025 OVC050
     FM221500 22010G18KT P6SM -RA BKN030 OVC050
     FM221700 22012G20KT P6SM -RA BKN040 OVC060
     FM222000 22015G24KT P6SM -SHRA BKN050 OVC080
     FM230300 22012KT P6SM BKN070 OVC100=



000
FTUS46 KOTX 221120
TAFMWH
TAF
KMWH 221120Z 2212/2312 19009KT P6SM SCT120 BKN150 OVC200
     FM221800 22017G25KT P6SM SCT060 BKN200
     FM230300 24012KT P6SM BKN200=



000
FTUS46 KOTX 221120
TAFEAT
TAF
KEAT 221120Z 2212/2312 30012KT P6SM SCT150 BKN200
     FM221500 31012KT P6SM BKN200
     FM222000 30022G30KT P6SM FEW050 BKN200
     FM230300 29012KT P6SM BKN200=



000
FTUS46 KOTX 221120
TAFCOE
TAF
KCOE 221120Z 2212/2312 20008KT 6SM -RA BR SCT012 OVC020
     FM221600 21010G18KT 6SM -RA BR OVC025
     FM221930 21017G24KT P6SM -SHRA BKN040 OVC080
     FM230300 20013KT P6SM -SHRA BKN050 OVC080=



000
FTUS46 KOTX 220552 CCA
TAFCOE
TAF COR
KCOE 220552Z 2206/2306 20008KT 6SM -RA BR SCT012 OVC020
     FM221600 21010G18KT 6SM -RA BR OVC025
     FM221930 21017G24KT P6SM -SHRA BKN040 OVC080
     FM230300 20013KT P6SM -SHRA BKN050 OVC080=



000
FTUS46 KOTX 220551 CCA
TAFGEG
TAF COR
KGEG 220551Z 2206/2306 20018KT P6SM -RA BKN010 OVC050
     FM221500 21017G23KT P6SM -RA BKN030 OVC050
     FM221800 22020G28KT P6SM -RA BKN040 OVC060
     FM222000 22024G32KT P6SM -SHRA BKN050 OVC080
     FM230300 21016KT P6SM BKN070 OVC100=



000
FTUS46 KOTX 220409 AAB
TAFGEG
TAF AMD
KGEG 220409Z 2204/2224 19012KT P6SM -SHRA SCT040 BKN060 OVC080
     FM221200 21017G24KT P6SM -RA BKN025 OVC050
     FM222000 22024G32KT P6SM -SHRA OVC050=



000
FTUS46 KOTX 220016 AAA
TAFEAT
TAF AMD
KEAT 220016Z 2200/2224 31009KT P6SM BKN150
     FM220600 30012KT P6SM SCT100 SCT250
     FM221500 31020G26KT P6SM BKN200
     FM222200 30032G39KT P6SM SCT250=



000
FTUS46 KOTX 220014 AAA
TAFMWH
TAF AMD
KMWH 220014Z 2200/2224 20009KT P6SM VCSH OVC090
     FM220400 21010KT P6SM BKN070 BKN200
     FM221800 21019G26KT P6SM BKN100 BKN200=



000
FTUS46 KOTX 220011 AAA
TAFLWS
TAF AMD
KLWS 220011Z 2200/2224 09009KT P6SM -SHRA SCT040 BKN070 OVC080
     FM220600 18006KT P6SM VCSH BKN050 OVC090
     FM221400 16010G17KT P6SM BKN050 OVC070
     FM222000 31012G20KT P6SM BKN100=



000
FTUS46 KOTX 220010 AAA
TAFGEG
TAF AMD
KGEG 220010Z 2200/2224 15008KT P6SM -SHRA BKN040 OVC060
     FM220600 19012KT P6SM -SHRA BKN060 OVC080
     FM221200 21017G24KT P6SM -RA BKN025 OVC050
     FM222000 22024G32KT P6SM -SHRA OVC050=



000
FTUS46 KOTX 212340
TAFLWS
TAF
KLWS 212340Z 2200/2224 09009KT P6SM -SHRA SCT040 BKN070 OVC080
     FM220600 18006KT P6SM VCSH BKN050 OVC090
     FM221400 21010KT P6SM BKN050 OVC070=



000
FTUS46 KOTX 212340
TAFPUW
TAF
KPUW 212340Z 2200/2224 05003KT P6SM SCT050
     FM220300 23007KT P6SM -SHRA BKN040 OVC080
     FM221200 24018G25KT P6SM VCSH BKN035 OVC060
     FM221800 25022G29KT P6SM OVC060=



000
FTUS46 KOTX 212340
TAFCOE
TAF
KCOE 212340Z 2200/2224 17007KT P6SM -SHRA SCT025 BKN040 OVC060
     FM220600 20010KT P6SM -RA SCT025 OVC050
     FM221200 21008KT 6SM -RA BR OVC025
     FM222000 21017G24KT P6SM -SHRA OVC035=



000
FTUS46 KOTX 212340
TAFSFF
TAF
KSFF 212340Z 2200/2224 21009KT P6SM -SHRA BKN060 BKN070 OVC090
     FM221200 22011G18KT P6SM -RA BKN025 OVC050
     FM222000 22015G24KT P6SM -SHRA OVC060=



000
FTUS46 KOTX 212340
TAFGEG
TAF
KGEG 212340Z 2200/2224 21012G17KT P6SM -SHRA BKN040 OVC060
     FM220600 19012KT P6SM -SHRA BKN060 OVC080
     FM221200 21017G24KT P6SM -RA BKN025 OVC050
     FM222000 22024G32KT P6SM -SHRA OVC050=



000
FTUS46 KOTX 212340
TAFEAT
TAF
KEAT 212340Z 2200/2224 26005KT P6SM BKN150
     FM220300 30012KT P6SM BKN100
     FM221500 31020G26KT P6SM BKN200=



000
FTUS46 KOTX 212340
TAFMWH
TAF
KMWH 212340Z 2200/2224 20009KT P6SM VCSH OVC090
     FM220400 21010KT P6SM SCT070 BKN200
     FM221500 22011KT P6SM BKN100 BKN200=



000
FTUS46 KOTX 212302 AAC
TAFSFF
TAF AMD
KSFF 212302Z 2123/2218 21009KT P6SM -SHRA VCTS SCT060CB BKN070
      OVC090
     FM220100 21006KT P6SM -SHRA BKN045 OVC060
     FM221200 22011KT P6SM -RA BKN025 OVC050=



    US Dept of Commerce
    National Oceanic and Atmospheric Administration
    National Weather Service
    1325 East West Highway
    Silver Spring, MD 20910
    Page Author: NWS Internet Services Team
Disclaimer
Information Quality
Credits
Glossary
Privacy Policy
Freedom of Information Act (FOIA)
About Us
Career Opportunities